Time;durP1;ratioP1;P1;durP2;ratioP2;P2;SDS_P1;SDS_P2;PMS_P1;PMS_P2;Temp;Humidity;BMP_temperature;BMP_pressure;BME280_temperature;BME280_humidity;BME280_pressure;Samples;Min_cycle;Max_cycle;Signal;HPM_P1;HPM_P2
2023/04/21 00:00:15;;;;;;;10.10;5.17;;;11.80;99.90;;;;;;4912723;29;20324;-67
2023/04/21 00:02:43;;;;;;;12.57;4.70;;;11.80;99.90;;;;;;4908414;29;20303;-67
2023/04/21 00:05:12;;;;;;;8.10;4.77;;;11.80;99.90;;;;;;4911092;29;20209;-67
2023/04/21 00:07:41;;;;;;;8.80;4.73;;;11.80;99.90;;;;;;4919882;29;20758;-67
2023/04/21 00:10:09;;;;;;;11.13;4.63;;;11.80;99.90;;;;;;4930897;29;20236;-67
2023/04/21 00:12:36;;;;;;;9.60;4.90;;;11.70;99.90;;;;;;4930870;29;20212;-67
2023/04/21 00:15:03;;;;;;;6.67;4.80;;;11.70;99.90;;;;;;4930351;29;20319;-68
2023/04/21 00:17:30;;;;;;;11.10;4.73;;;11.70;99.90;;;;;;4930299;29;20278;-67
2023/04/21 00:19:57;;;;;;;10.27;5.60;;;11.70;99.90;;;;;;4930254;29;20627;-68
2023/04/21 00:22:24;;;;;;;13.57;5.10;;;11.70;99.90;;;;;;4930591;29;20232;-67
2023/04/21 00:24:53;;;;;;;10.03;4.83;;;11.70;99.90;;;;;;4930286;29;20323;-67
2023/04/21 00:27:20;;;;;;;7.83;5.07;;;11.70;99.90;;;;;;4930188;29;20271;-67
2023/04/21 00:29:46;;;;;;;10.40;5.27;;;11.70;99.90;;;;;;4930564;29;20219;-67
2023/04/21 00:32:13;;;;;;;10.33;5.90;;;11.70;99.90;;;;;;4929929;29;20638;-67
2023/04/21 00:34:40;;;;;;;9.27;5.13;;;11.60;99.90;;;;;;4930221;29;20287;-67
2023/04/21 00:37:07;;;;;;;8.53;4.97;;;11.60;99.90;;;;;;4930672;29;20278;-67
2023/04/21 00:39:34;;;;;;;8.80;4.80;;;11.60;99.90;;;;;;4930209;29;20216;-67
2023/04/21 00:42:03;;;;;;;9.03;4.57;;;11.60;99.90;;;;;;4930469;29;20216;-67
2023/04/21 00:44:29;;;;;;;12.50;5.10;;;11.60;99.90;;;;;;4930110;29;20307;-67
2023/04/21 00:46:56;;;;;;;12.20;4.90;;;11.60;99.90;;;;;;4930198;29;20212;-67
2023/04/21 00:49:25;;;;;;;11.30;4.83;;;11.60;99.90;;;;;;4930280;29;20303;-67
2023/04/21 00:51:52;;;;;;;8.37;4.70;;;11.60;99.90;;;;;;4929927;29;20239;-67
2023/04/21 00:54:20;;;;;;;9.40;5.77;;;11.60;99.90;;;;;;4929775;29;20255;-67
2023/04/21 00:56:47;;;;;;;6.93;4.70;;;11.50;99.90;;;;;;4929788;29;20228;-68
2023/04/21 00:59:15;;;;;;;7.40;5.40;;;11.50;99.90;;;;;;4929307;29;20212;-70
2023/04/21 01:01:43;;;;;;;7.33;5.13;;;11.50;99.90;;;;;;4929797;29;20302;-71
2023/04/21 01:04:10;;;;;;;7.30;5.13;;;11.50;99.90;;;;;;4929738;29;20327;-68
2023/04/21 01:06:37;;;;;;;11.80;6.00;;;11.40;99.90;;;;;;4930032;29;20212;-67
2023/04/21 01:09:04;;;;;;;9.77;5.63;;;11.40;99.90;;;;;;4929428;29;20691;-70
2023/04/21 01:11:31;;;;;;;8.23;5.60;;;11.40;99.90;;;;;;4929573;29;20623;-70
2023/04/21 01:13:58;;;;;;;8.47;5.33;;;11.40;99.90;;;;;;4933578;29;20219;-67
2023/04/21 01:16:28;;;;;;;9.77;5.53;;;11.30;99.90;;;;;;4948061;28;20338;-70
2023/04/21 01:18:55;;;;;;;8.17;6.13;;;11.40;99.90;;;;;;4931884;28;20239;-70
2023/04/21 01:21:22;;;;;;;9.57;5.93;;;11.30;99.90;;;;;;4929759;29;20232;-70
2023/04/21 01:23:51;;;;;;;12.07;5.67;;;11.30;99.90;;;;;;4912446;29;20209;-70
2023/04/21 01:26:20;;;;;;;10.07;5.67;;;11.30;99.90;;;;;;4910750;29;20212;-69
2023/04/21 01:28:47;;;;;;;9.70;6.27;;;11.30;99.90;;;;;;4913795;29;20216;-69
2023/04/21 01:31:14;;;;;;;11.30;5.93;;;11.30;99.90;;;;;;4929328;29;20242;-69
2023/04/21 01:33:41;;;;;;;12.13;6.53;;;11.30;99.90;;;;;;4929432;29;20291;-70
2023/04/21 01:36:09;;;;;;;9.97;6.23;;;11.30;99.90;;;;;;4929583;29;20216;-69
2023/04/21 01:38:38;;;;;;;9.80;6.23;;;11.20;99.90;;;;;;4929266;29;20301;-68
2023/04/21 01:41:07;;;;;;;10.97;6.37;;;11.20;99.90;;;;;;4929469;29;20215;-69
2023/04/21 01:43:34;;;;;;;10.43;6.57;;;11.20;99.90;;;;;;4929259;29;20251;-69
2023/04/21 01:46:00;;;;;;;7.50;6.03;;;11.20;99.90;;;;;;4929118;29;20299;-69
2023/04/21 01:48:27;;;;;;;9.90;6.37;;;11.20;99.90;;;;;;4929231;29;20303;-68
2023/04/21 01:50:54;;;;;;;14.17;6.20;;;11.20;99.90;;;;;;4928722;29;20303;-69
2023/04/21 01:53:21;;;;;;;9.40;6.43;;;11.10;99.90;;;;;;4928833;29;20675;-69
2023/04/21 01:55:48;;;;;;;11.00;6.80;;;11.20;99.90;;;;;;4928810;29;20212;-68
2023/04/21 01:58:16;;;;;;;10.73;6.63;;;11.10;99.90;;;;;;4928985;29;20218;-69
2023/04/21 02:00:43;;;;;;;11.30;6.37;;;11.10;99.90;;;;;;4928524;29;20675;-70
2023/04/21 02:03:10;;;;;;;7.33;6.17;;;11.10;99.90;;;;;;4928919;29;20295;-70
2023/04/21 02:05:37;;;;;;;8.40;6.80;;;11.00;99.90;;;;;;4928681;29;20208;-70
2023/04/21 02:08:05;;;;;;;10.43;6.07;;;11.00;99.90;;;;;;4920357;29;20217;-70
2023/04/21 02:10:32;;;;;;;7.33;6.30;;;11.00;99.90;;;;;;4909723;29;20268;-70
2023/04/21 02:12:59;;;;;;;8.23;6.57;;;11.00;99.90;;;;;;4925900;29;20619;-70
2023/04/21 02:15:28;;;;;;;9.67;6.07;;;11.00;99.90;;;;;;4928520;29;20212;-70
2023/04/21 02:17:55;;;;;;;9.47;6.40;;;11.00;99.90;;;;;;4927550;29;20294;-68
2023/04/21 02:20:21;;;;;;;9.50;6.73;;;11.00;99.90;;;;;;4927337;29;20334;-67
2023/04/21 02:22:48;;;;;;;10.50;6.93;;;11.00;99.90;;;;;;4924747;29;20757;-68
2023/04/21 02:25:15;;;;;;;10.90;6.77;;;11.00;99.90;;;;;;4927944;29;20263;-70
2023/04/21 02:27:42;;;;;;;10.00;6.63;;;11.00;99.90;;;;;;4928157;29;20295;-70
2023/04/21 02:30:09;;;;;;;9.20;7.40;;;11.00;99.90;;;;;;4928006;29;20299;-70
2023/04/21 02:32:38;;;;;;;14.10;7.23;;;10.90;99.90;;;;;;4924975;29;20232;-69
2023/04/21 02:35:05;;;;;;;11.23;7.90;;;10.90;99.90;;;;;;4928165;29;20212;-69
2023/04/21 02:37:33;;;;;;;7.50;6.80;;;10.90;99.90;;;;;;4922919;29;20267;-69
2023/04/21 02:40:00;;;;;;;14.00;7.53;;;10.90;99.90;;;;;;4926417;29;20692;-69
2023/04/21 02:42:27;;;;;;;14.73;7.10;;;10.90;99.90;;;;;;4926112;29;20698;-69
2023/04/21 02:44:53;;;;;;;9.10;6.90;;;10.90;99.90;;;;;;4925947;29;20295;-69
2023/04/21 02:47:20;;;;;;;11.77;7.47;;;10.80;99.90;;;;;;4926552;29;20295;-69
2023/04/21 02:49:48;;;;;;;10.90;7.10;;;10.80;99.90;;;;;;4926058;29;20216;-69
2023/04/21 02:52:15;;;;;;;8.47;7.53;;;10.80;99.90;;;;;;4926471;29;20379;-70
2023/04/21 02:54:42;;;;;;;25.17;7.83;;;10.80;99.90;;;;;;4925905;29;20295;-69
2023/04/21 02:57:09;;;;;;;10.13;7.73;;;10.80;99.90;;;;;;4924454;29;20244;-70
2023/04/21 02:59:36;;;;;;;10.53;7.63;;;10.80;99.90;;;;;;4927418;29;20267;-70
2023/04/21 03:02:03;;;;;;;8.80;7.17;;;10.80;99.90;;;;;;4927454;29;20200;-69
2023/04/21 03:04:31;;;;;;;8.83;7.57;;;10.80;99.90;;;;;;4926967;29;20590;-70
2023/04/21 03:06:59;;;;;;;8.30;7.50;;;10.80;99.90;;;;;;4927837;29;20204;-70
2023/04/21 03:09:26;;;;;;;9.83;7.50;;;10.80;99.90;;;;;;4927289;29;20216;-70
2023/04/21 03:11:53;;;;;;;12.23;7.70;;;10.80;99.90;;;;;;4926639;29;20330;-70
2023/04/21 03:14:20;;;;;;;11.53;8.13;;;10.80;99.90;;;;;;4927107;29;20219;-70
2023/04/21 03:16:47;;;;;;;10.03;8.80;;;10.80;99.90;;;;;;4927390;29;20350;-70
2023/04/21 03:19:14;;;;;;;13.10;8.83;;;10.80;99.90;;;;;;4927501;29;20208;-70
2023/04/21 03:21:41;;;;;;;10.83;9.40;;;10.80;99.90;;;;;;4927486;29;20327;-70
2023/04/21 03:24:10;;;;;;;13.40;9.30;;;10.80;99.90;;;;;;4927761;29;20216;-70
2023/04/21 03:26:38;;;;;;;12.43;8.80;;;10.80;99.90;;;;;;4927448;29;20304;-70
2023/04/21 03:29:05;;;;;;;11.90;9.20;;;10.80;99.90;;;;;;4927604;29;20295;-70
2023/04/21 03:31:32;;;;;;;15.17;9.40;;;10.80;99.90;;;;;;4927384;29;20326;-70
2023/04/21 03:33:59;;;;;;;12.53;8.77;;;10.70;99.90;;;;;;4927239;29;20218;-70
2023/04/21 03:36:26;;;;;;;11.23;8.40;;;10.70;99.90;;;;;;4927518;29;20298;-70
2023/04/21 03:38:53;;;;;;;10.07;8.50;;;10.70;99.90;;;;;;4928197;29;20314;-70
2023/04/21 03:41:21;;;;;;;10.60;8.00;;;10.70;99.90;;;;;;4931486;29;20316;-70
2023/04/21 03:43:51;;;;;;;10.10;7.83;;;10.60;99.90;;;;;;4931048;29;20307;-70
2023/04/21 03:46:19;;;;;;;12.80;7.80;;;10.70;99.90;;;;;;4931438;29;20212;-70
2023/04/21 03:48:46;;;;;;;9.73;7.47;;;10.70;99.90;;;;;;4931352;29;20219;-70
2023/04/21 03:51:13;;;;;;;8.73;7.47;;;10.60;99.90;;;;;;4931142;29;20228;-70
2023/04/21 03:53:40;;;;;;;9.87;7.37;;;10.60;99.90;;;;;;4931201;29;20267;-70
2023/04/21 03:56:08;;;;;;;8.07;7.37;;;10.60;99.90;;;;;;4931493;29;20302;-70
2023/04/21 03:58:37;;;;;;;8.70;7.80;;;10.60;99.90;;;;;;4929035;29;20216;-70
2023/04/21 04:01:06;;;;;;;8.90;7.87;;;10.60;99.90;;;;;;4925273;29;20271;-70
2023/04/21 04:03:33;;;;;;;13.57;7.90;;;10.50;99.90;;;;;;4931070;29;20239;-68
2023/04/21 04:06:01;;;;;;;10.87;7.50;;;10.50;99.90;;;;;;4930669;29;20667;-68
2023/04/21 04:08:28;;;;;;;9.93;7.90;;;10.50;99.90;;;;;;4930946;29;20227;-68
2023/04/21 04:10:55;;;;;;;9.70;7.90;;;10.50;99.90;;;;;;4930674;29;20216;-68
2023/04/21 04:13:23;;;;;;;11.50;8.60;;;10.50;99.90;;;;;;4930479;29;20275;-68
2023/04/21 04:15:51;;;;;;;10.07;8.40;;;10.40;99.90;;;;;;4930621;29;20212;-68
2023/04/21 04:18:18;;;;;;;10.77;8.27;;;10.40;99.90;;;;;;4930580;29;20905;-69
2023/04/21 04:20:45;;;;;;;10.73;8.03;;;10.40;99.90;;;;;;4930203;29;20268;-69
2023/04/21 04:23:12;;;;;;;11.50;8.13;;;10.40;99.90;;;;;;4930507;29;20299;-69
2023/04/21 04:25:39;;;;;;;12.03;8.10;;;10.40;99.90;;;;;;4930583;29;20556;-69
2023/04/21 04:28:08;;;;;;;9.83;8.03;;;10.30;99.90;;;;;;4930741;29;20311;-69
2023/04/21 04:30:35;;;;;;;8.67;7.77;;;10.40;99.90;;;;;;4930107;29;20216;-69
2023/04/21 04:33:04;;;;;;;9.80;8.80;;;10.40;99.90;;;;;;4929881;29;20247;-69
2023/04/21 04:35:31;;;;;;;9.57;8.30;;;10.40;99.90;;;;;;4930115;29;20276;-69
2023/04/21 04:37:58;;;;;;;9.53;7.80;;;10.40;99.90;;;;;;4930188;29;20235;-69
2023/04/21 04:40:25;;;;;;;9.67;8.53;;;10.50;99.90;;;;;;4930144;29;21099;-69
2023/04/21 04:42:52;;;;;;;9.03;7.77;;;10.50;99.90;;;;;;4929981;29;20391;-70
2023/04/21 04:45:21;;;;;;;9.77;8.17;;;10.50;99.90;;;;;;4929813;29;20223;-69
2023/04/21 04:47:48;;;;;;;9.90;8.17;;;10.50;99.90;;;;;;4929900;29;20208;-69
2023/04/21 04:50:16;;;;;;;9.57;8.57;;;10.50;99.90;;;;;;4928946;29;20307;-69
2023/04/21 04:52:45;;;;;;;9.90;8.40;;;10.50;99.90;;;;;;4929408;29;20362;-69
2023/04/21 04:55:13;;;;;;;9.60;8.47;;;10.50;99.90;;;;;;4929087;29;20224;-69
2023/04/21 04:57:40;;;;;;;10.67;8.67;;;10.50;99.90;;;;;;4929290;29;20681;-69
2023/04/21 05:00:10;;;;;;;9.03;8.13;;;10.50;99.90;;;;;;4930161;29;20303;-69
2023/04/21 05:02:37;;;;;;;9.90;8.83;;;10.50;99.90;;;;;;4930235;29;20212;-69
2023/04/21 05:05:05;;;;;;;16.50;8.97;;;10.40;99.90;;;;;;4929513;29;20628;-69
2023/04/21 05:07:33;;;;;;;9.43;8.47;;;10.40;99.90;;;;;;4929370;29;20222;-69
2023/04/21 05:10:01;;;;;;;12.30;8.87;;;10.40;99.90;;;;;;4930110;29;20302;-69
2023/04/21 05:12:28;;;;;;;10.30;8.27;;;10.50;99.90;;;;;;4929786;29;20244;-69
2023/04/21 05:14:55;;;;;;;11.10;8.63;;;10.50;99.90;;;;;;4929413;29;20323;-69
2023/04/21 05:17:22;;;;;;;14.63;8.50;;;10.50;99.90;;;;;;4929418;29;20762;-69
2023/04/21 05:19:49;;;;;;;15.17;8.37;;;10.50;99.90;;;;;;4928959;29;20496;-69
2023/04/21 05:22:16;;;;;;;13.70;9.03;;;10.50;99.90;;;;;;4929008;29;20204;-69
2023/04/21 05:24:44;;;;;;;13.97;9.17;;;10.60;99.90;;;;;;4929475;29;20295;-69
2023/04/21 05:27:11;;;;;;;12.33;8.20;;;10.60;99.90;;;;;;4929640;29;20219;-69
2023/04/21 05:29:38;;;;;;;11.27;8.37;;;10.60;99.90;;;;;;4929530;29;20295;-69
2023/04/21 05:32:05;;;;;;;11.07;8.60;;;10.70;99.90;;;;;;4929426;29;20238;-68
2023/04/21 05:34:32;;;;;;;14.53;8.67;;;10.70;99.90;;;;;;4929690;29;20219;-69
2023/04/21 05:36:59;;;;;;;10.07;7.80;;;10.70;99.90;;;;;;4929784;29;20303;-69
2023/04/21 05:39:27;;;;;;;9.10;8.30;;;10.80;99.90;;;;;;4929556;29;20617;-69
2023/04/21 05:41:55;;;;;;;10.53;8.90;;;10.80;99.90;;;;;;4929292;29;20754;-69
2023/04/21 05:44:24;;;;;;;13.77;10.27;;;10.80;99.90;;;;;;4929027;29;20807;-69
2023/04/21 05:46:51;;;;;;;9.47;8.47;;;10.80;99.90;;;;;;4928931;29;20303;-69
2023/04/21 05:49:17;;;;;;;9.70;8.67;;;10.90;99.90;;;;;;4929211;29;20219;-69
2023/04/21 05:51:44;;;;;;;18.57;9.60;;;10.90;99.90;;;;;;4928914;29;20704;-69
2023/04/21 05:54:11;;;;;;;9.70;7.97;;;11.00;99.90;;;;;;4928953;29;20212;-69
2023/04/21 05:56:38;;;;;;;12.33;8.23;;;11.00;99.90;;;;;;4928748;29;20310;-69
2023/04/21 05:59:07;;;;;;;9.43;7.90;;;11.00;99.90;;;;;;4928118;29;20856;-69
2023/04/21 06:01:33;;;;;;;8.80;7.90;;;11.00;99.90;;;;;;4928262;29;20224;-68
2023/04/21 06:04:00;;;;;;;8.67;7.70;;;11.10;99.90;;;;;;4928663;29;20688;-69
2023/04/21 06:06:27;;;;;;;15.43;8.10;;;11.10;99.90;;;;;;4928725;29;20342;-69
2023/04/21 06:08:54;;;;;;;18.37;8.80;;;11.20;99.90;;;;;;4928700;29;20223;-69
2023/04/21 06:11:22;;;;;;;17.20;12.27;;;11.20;99.90;;;;;;4928606;29;20303;-68
2023/04/21 06:13:49;;;;;;;32.40;27.77;;;11.20;99.90;;;;;;4928237;29;20248;-69
2023/04/21 06:16:17;;;;;;;12.93;11.17;;;11.30;99.90;;;;;;4928681;29;20342;-70
2023/04/21 06:18:44;;;;;;;11.50;8.83;;;11.30;99.90;;;;;;4928353;29;20303;-69
2023/04/21 06:21:11;;;;;;;10.10;7.90;;;11.30;99.90;;;;;;4928531;29;20746;-69
2023/04/21 06:23:38;;;;;;;9.13;8.10;;;11.40;99.90;;;;;;4928680;29;20212;-69
2023/04/21 06:26:08;;;;;;;13.73;9.10;;;11.40;99.90;;;;;;4928514;29;20299;-69
2023/04/21 06:28:36;;;;;;;10.57;7.97;;;11.40;99.90;;;;;;4928958;29;20635;-69
2023/04/21 06:31:03;;;;;;;10.70;8.47;;;11.50;99.90;;;;;;4928265;29;20753;-69
2023/04/21 06:33:32;;;;;;;9.57;8.53;;;11.50;99.90;;;;;;4928366;29;20667;-69
2023/04/21 06:35:59;;;;;;;10.27;7.73;;;11.50;99.90;;;;;;4928371;29;20267;-69
2023/04/21 06:38:26;;;;;;;9.93;8.57;;;11.60;99.90;;;;;;4928481;29;20299;-69
2023/04/21 06:40:52;;;;;;;17.30;8.80;;;11.60;99.90;;;;;;4928066;29;20216;-69
2023/04/21 06:43:20;;;;;;;9.20;7.93;;;11.70;99.90;;;;;;4928083;29;20766;-69
2023/04/21 06:45:47;;;;;;;11.00;8.07;;;11.70;99.90;;;;;;4927774;29;20216;-69
2023/04/21 06:48:13;;;;;;;9.13;7.93;;;11.80;99.90;;;;;;4928044;29;20303;-69
2023/04/21 06:50:43;;;;;;;11.27;8.40;;;11.80;99.90;;;;;;4928331;29;20310;-69
2023/04/21 06:53:10;;;;;;;8.67;7.80;;;11.90;99.90;;;;;;4928077;29;20705;-69
2023/04/21 06:55:37;;;;;;;8.07;7.27;;;11.90;99.90;;;;;;4928672;29;20208;-69
2023/04/21 06:58:04;;;;;;;12.23;7.83;;;12.00;99.90;;;;;;4927778;29;20216;-69
2023/04/21 07:00:31;;;;;;;9.97;8.33;;;12.00;99.90;;;;;;4911158;29;20379;-69
2023/04/21 07:02:58;;;;;;;8.97;7.70;;;12.00;99.90;;;;;;4909253;29;20223;-69
2023/04/21 07:05:25;;;;;;;8.67;7.73;;;12.00;99.90;;;;;;4909386;29;20617;-69
2023/04/21 07:07:58;;;;;;;8.87;7.90;;;12.00;99.90;;;;;;4909218;29;20902;-69
2023/04/21 07:10:25;;;;;;;10.13;7.33;;;12.10;99.90;;;;;;4909092;29;20292;-69
2023/04/21 07:12:52;;;;;;;9.17;7.60;;;12.20;99.90;;;;;;4908760;29;20331;-69
2023/04/21 07:15:19;;;;;;;11.13;7.90;;;12.20;99.90;;;;;;4911601;29;20216;-69
2023/04/21 07:17:46;;;;;;;11.87;7.90;;;12.20;99.90;;;;;;4912396;29;20240;-70
2023/04/21 07:20:13;;;;;;;8.57;7.77;;;12.20;99.90;;;;;;4929692;29;20239;-69
2023/04/21 07:22:40;;;;;;;11.73;7.53;;;12.30;99.90;;;;;;4931586;29;20299;-69
2023/04/21 07:25:10;;;;;;;8.73;7.30;;;12.40;99.90;;;;;;4931765;29;20212;-70
2023/04/21 07:27:37;;;;;;;8.43;7.73;;;12.40;99.90;;;;;;4931403;29;20208;-69
2023/04/21 07:30:04;;;;;;;8.83;7.93;;;12.50;99.90;;;;;;4931176;29;20224;-69
2023/04/21 07:32:32;;;;;;;8.67;7.77;;;12.50;99.90;;;;;;4931726;29;20274;-69
2023/04/21 07:35:00;;;;;;;9.67;7.40;;;12.50;99.90;;;;;;4931655;29;20216;-70
2023/04/21 07:37:27;;;;;;;13.30;8.00;;;12.60;99.90;;;;;;4931801;29;20680;-69
2023/04/21 07:39:54;;;;;;;9.17;8.00;;;12.70;99.90;;;;;;4931670;29;20311;-69
2023/04/21 07:42:23;;;;;;;9.23;8.37;;;12.80;99.90;;;;;;4931561;29;20295;-70
2023/04/21 07:44:50;;;;;;;12.23;8.43;;;12.90;99.90;;;;;;4929015;29;20271;-69
2023/04/21 07:47:17;;;;;;;9.23;7.90;;;12.90;99.90;;;;;;4912511;29;20213;-69
2023/04/21 07:49:44;;;;;;;9.13;8.00;;;13.00;99.90;;;;;;4912399;29;20208;-70
2023/04/21 07:52:11;;;;;;;9.50;7.73;;;13.00;99.90;;;;;;4913419;29;20219;-69
2023/04/21 07:54:38;;;;;;;10.73;8.10;;;13.10;99.90;;;;;;4931225;29;20926;-70
2023/04/21 07:57:06;;;;;;;8.40;7.53;;;13.20;99.90;;;;;;4931115;29;20226;-69
2023/04/21 07:59:34;;;;;;;8.70;7.57;;;13.30;99.90;;;;;;4930487;29;20671;-70
2023/04/21 08:02:01;;;;;;;8.73;7.73;;;13.40;99.90;;;;;;4930814;29;21021;-69
2023/04/21 08:04:28;;;;;;;10.10;8.07;;;13.50;99.90;;;;;;4930821;29;20302;-69
2023/04/21 08:06:55;;;;;;;14.30;8.93;;;13.50;99.90;;;;;;4930496;29;20311;-69
2023/04/21 08:09:22;;;;;;;8.70;7.77;;;13.60;99.90;;;;;;4930926;29;20302;-69
2023/04/21 08:11:49;;;;;;;11.60;7.33;;;13.60;99.90;;;;;;4930705;29;20216;-69
2023/04/21 08:14:16;;;;;;;9.90;7.43;;;13.60;99.90;;;;;;4930421;29;20243;-69
2023/04/21 08:16:44;;;;;;;13.17;7.10;;;13.60;99.90;;;;;;4930573;29;20569;-69
2023/04/21 08:19:11;;;;;;;9.37;7.13;;;13.70;99.90;;;;;;4930542;29;20243;-69
2023/04/21 08:21:38;;;;;;;9.43;7.40;;;13.70;99.90;;;;;;4930234;29;20219;-69
2023/04/21 08:24:05;;;;;;;9.77;7.10;;;13.80;99.90;;;;;;4930268;29;20271;-69
2023/04/21 08:26:32;;;;;;;7.83;6.93;;;13.90;99.90;;;;;;4930236;29;20302;-69
2023/04/21 08:28:59;;;;;;;9.83;6.67;;;13.90;99.90;;;;;;4930006;29;20754;-69
2023/04/21 08:31:29;;;;;;;13.13;7.67;;;13.90;99.90;;;;;;4930254;29;20275;-69
2023/04/21 08:34:00;;;;;;;8.83;7.73;;;14.10;99.90;;;;;;4929877;29;20350;-69
2023/04/21 08:36:26;;;;;;;10.23;7.43;;;14.10;99.90;;;;;;4930173;29;20207;-70
2023/04/21 08:38:53;;;;;;;9.30;7.40;;;14.20;99.90;;;;;;4930319;29;20216;-70
2023/04/21 08:41:22;;;;;;;9.87;6.90;;;14.20;99.90;;;;;;4930210;29;20315;-69
2023/04/21 08:43:48;;;;;;;8.10;7.07;;;14.30;99.90;;;;;;4929813;29;20212;-70
2023/04/21 08:46:16;;;;;;;10.17;6.97;;;14.30;99.90;;;;;;4930024;29;20302;-70
2023/04/21 08:48:43;;;;;;;7.67;6.97;;;14.40;99.90;;;;;;4929348;29;20208;-70
2023/04/21 08:51:11;;;;;;;8.20;6.60;;;14.50;99.90;;;;;;4930383;29;20332;-69
2023/04/21 08:53:41;;;;;;;10.30;6.60;;;14.70;99.90;;;;;;4930470;29;20344;-70
2023/04/21 08:56:08;;;;;;;8.47;6.60;;;14.90;99.90;;;;;;4929965;29;20240;-69
2023/04/21 08:58:35;;;;;;;10.97;6.50;;;15.00;99.90;;;;;;4929960;29;20849;-69
2023/04/21 09:01:02;;;;;;;9.80;6.20;;;15.20;99.90;;;;;;4930028;29;20295;-69
2023/04/21 09:03:30;;;;;;;6.47;5.73;;;15.10;99.90;;;;;;4929886;29;20271;-69
2023/04/21 09:06:01;;;;;;;7.03;6.33;;;15.00;99.90;;;;;;4929741;29;20894;-69
2023/04/21 09:08:30;;;;;;;8.00;6.47;;;15.00;99.90;;;;;;4930005;29;20307;-70
2023/04/21 09:10:58;;;;;;;7.67;6.23;;;14.90;99.90;;;;;;4929850;29;20554;-70
2023/04/21 09:13:30;;;;;;;6.27;5.77;;;15.00;99.90;;;;;;4929734;29;20334;-70
2023/04/21 09:15:57;;;;;;;7.47;6.47;;;14.90;99.90;;;;;;4929218;29;20760;-69
2023/04/21 09:18:27;;;;;;;8.27;6.00;;;15.00;99.90;;;;;;4929610;29;20232;-70
2023/04/21 09:21:07;;;;;;;6.97;6.27;;;15.10;99.90;;;;;;4929485;29;20758;-70
2023/04/21 09:23:41;;;;;;;6.53;5.80;;;15.20;99.90;;;;;;4929769;29;20232;-70
2023/04/21 09:26:09;;;;;;;7.33;6.20;;;15.20;99.90;;;;;;4929570;29;20714;-70
2023/04/21 09:28:36;;;;;;;10.60;6.03;;;15.20;99.90;;;;;;4929483;29;20224;-69
2023/04/21 09:31:03;;;;;;;6.40;5.90;;;15.20;99.90;;;;;;4929358;29;20299;-70
2023/04/21 09:33:34;;;;;;;11.27;6.30;;;15.20;99.90;;;;;;4929531;29;20236;-70
2023/04/21 09:36:02;;;;;;;9.77;6.30;;;15.30;99.90;;;;;;4929320;29;20203;-70
2023/04/21 09:38:29;;;;;;;12.37;6.57;;;15.30;99.90;;;;;;4928747;29;20301;-70
2023/04/21 09:41:01;;;;;;;6.80;5.90;;;15.30;99.90;;;;;;4929380;29;20299;-70
2023/04/21 09:43:28;;;;;;;11.87;6.13;;;15.40;99.90;;;;;;4929150;29;20253;-70
2023/04/21 09:45:56;;;;;;;7.10;5.80;;;15.70;99.90;;;;;;4928871;29;20264;-70
2023/04/21 09:48:28;;;;;;;7.03;6.43;;;16.00;99.90;;;;;;4929093;29;20314;-69
2023/04/21 09:50:56;;;;;;;6.23;5.57;;;16.00;99.90;;;;;;4929044;29;20576;-69
2023/04/21 09:53:28;;;;;;;7.43;6.30;;;16.20;99.90;;;;;;4928669;29;20323;-70
2023/04/21 09:55:58;;;;;;;5.73;5.33;;;16.40;99.90;;;;;;4928935;29;20282;-69
2023/04/21 09:58:33;;;;;;;6.57;6.03;;;16.50;99.90;;;;;;4929059;29;20243;-70
2023/04/21 10:01:00;;;;;;;6.77;5.60;;;16.60;99.90;;;;;;4928845;29;20207;-69
2023/04/21 10:03:28;;;;;;;10.70;6.20;;;16.60;99.90;;;;;;4928802;29;20212;-70
2023/04/21 10:05:56;;;;;;;9.63;5.90;;;16.70;99.90;;;;;;4929078;29;20220;-70
2023/04/21 10:08:23;;;;;;;6.97;6.37;;;16.90;99.90;;;;;;4928545;29;20219;-70
2023/04/21 10:10:51;;;;;;;7.83;5.97;;;16.90;99.90;;;;;;4928417;29;20678;-70
2023/04/21 10:13:19;;;;;;;7.03;5.80;;;16.90;99.90;;;;;;4928211;29;20236;-70
2023/04/21 10:15:47;;;;;;;6.20;5.70;;;16.90;99.90;;;;;;4928298;29;20667;-70
2023/04/21 10:18:17;;;;;;;8.33;6.17;;;17.00;99.90;;;;;;4928205;29;20331;-69
2023/04/21 10:21:02;;;;;;;8.83;5.90;;;16.90;99.90;;;;;;4928498;29;20284;-70
2023/04/21 10:23:31;;;;;;;6.73;5.77;;;17.00;99.90;;;;;;4928218;29;20204;-70
2023/04/21 10:26:06;;;;;;;6.37;5.87;;;16.90;99.90;;;;;;4928313;29;20295;-70
2023/04/21 10:28:48;;;;;;;9.80;6.20;;;17.00;99.90;;;;;;4928281;29;20212;-69
2023/04/21 10:31:30;;;;;;;6.63;5.50;;;17.30;99.90;;;;;;4928326;29;20287;-69
2023/04/21 10:34:34;;;;;;;8.17;5.57;;;17.30;99.90;;;;;;4927992;29;20331;-70
2023/04/21 10:37:14;;;;;;;5.60;5.17;;;17.50;99.90;;;;;;4928200;29;20659;-70
2023/04/21 10:39:47;;;;;;;19.13;6.53;;;17.70;99.90;;;;;;4927849;29;21016;-70
2023/04/21 10:42:23;;;;;;;6.70;5.20;;;17.90;99.90;;;;;;4927973;29;20635;-71
2023/04/21 10:45:08;;;;;;;8.50;5.40;;;18.00;99.90;;;;;;4927937;29;20206;-70
2023/04/21 10:47:43;;;;;;;6.37;5.70;;;18.20;99.90;;;;;;4928043;29;20283;-70
2023/04/21 10:50:24;;;;;;;8.03;5.77;;;18.30;99.90;;;;;;4927741;29;20738;-70
2023/04/21 10:52:58;;;;;;;7.57;5.17;;;18.30;99.90;;;;;;4928283;29;20583;-70
2023/04/21 10:55:28;;;;;;;6.87;5.30;;;18.40;99.90;;;;;;4928039;29;21040;-69
2023/04/21 10:57:55;;;;;;;6.70;5.50;;;18.60;99.90;;;;;;4928149;29;20204;-70
2023/04/21 11:00:24;;;;;;;10.83;5.57;;;18.70;99.90;;;;;;4927869;29;20302;-70
2023/04/21 11:02:56;;;;;;;5.93;5.27;;;18.80;99.90;;;;;;4927920;29;20240;-69
2023/04/21 11:05:35;;;;;;;7.60;5.30;;;18.90;99.90;;;;;;4928211;29;20209;-70
2023/04/21 11:08:07;;;;;;;7.20;5.50;;;18.80;99.50;;;;;;4928299;29;20208;-70
2023/04/21 11:10:49;;;;;;;5.97;5.40;;;18.90;99.90;;;;;;4928267;29;20239;-70
2023/04/21 11:13:16;;;;;;;5.80;5.17;;;18.80;99.50;;;;;;4928006;29;20200;-70
2023/04/21 11:16:05;;;;;;;7.03;5.47;;;18.90;99.90;;;;;;4928147;29;20291;-70
2023/04/21 11:18:37;;;;;;;7.33;5.27;;;19.00;99.90;;;;;;4928259;29;20259;-70
2023/04/21 11:21:16;;;;;;;6.43;5.50;;;19.20;99.90;;;;;;4928382;29;20239;-70
2023/04/21 11:23:53;;;;;;;5.80;5.30;;;19.30;99.20;;;;;;4928386;29;20251;-70
2023/04/21 11:26:30;;;;;;;9.20;5.47;;;19.30;99.80;;;;;;4928254;29;20294;-70
2023/04/21 11:29:00;;;;;;;8.67;6.00;;;19.30;98.50;;;;;;4927675;29;20212;-68
2023/04/21 11:31:29;;;;;;;6.00;5.38;;;19.40;99.00;;;;;;4928042;29;20227;-68
2023/04/21 11:33:58;;;;;;;6.13;5.27;;;19.50;98.20;;;;;;4927962;29;20247;-67
2023/04/21 11:36:26;;;;;;;9.03;5.80;;;19.70;98.20;;;;;;4927691;29;20302;-70
2023/04/21 11:38:53;;;;;;;6.30;5.70;;;19.80;97.80;;;;;;4927151;29;20671;-68
2023/04/21 11:41:22;;;;;;;5.97;5.47;;;19.90;97.80;;;;;;4927663;29;20303;-69
2023/04/21 11:43:49;;;;;;;6.53;5.45;;;20.00;98.30;;;;;;4927491;29;20247;-69
2023/04/21 11:46:24;;;;;;;5.53;5.13;;;20.10;97.40;;;;;;4927253;29;20746;-69
2023/04/21 11:49:00;;;;;;;5.93;5.30;;;20.10;98.10;;;;;;4927842;29;20204;-69
2023/04/21 11:51:32;;;;;;;5.80;5.28;;;20.30;97.20;;;;;;4927138;29;20689;-68
2023/04/21 11:53:59;;;;;;;6.88;5.32;;;20.50;96.60;;;;;;4927643;29;20263;-70
2023/04/21 11:56:26;;;;;;;7.72;5.60;;;20.50;96.30;;;;;;4927656;29;20247;-70
2023/04/21 11:58:53;;;;;;;6.03;5.40;;;20.60;95.70;;;;;;4927260;29;20222;-70
2023/04/21 12:01:23;;;;;;;5.90;5.30;;;20.60;95.40;;;;;;4929909;29;20723;-69
2023/04/21 12:03:54;;;;;;;5.80;5.40;;;20.80;95.90;;;;;;4931549;29;20230;-69
2023/04/21 12:06:24;;;;;;;5.72;5.15;;;20.80;96.10;;;;;;4930963;29;20610;-69
2023/04/21 12:08:56;;;;;;;6.43;5.82;;;20.80;96.20;;;;;;4930632;29;20280;-69
2023/04/21 12:11:24;;;;;;;8.80;6.00;;;20.60;95.90;;;;;;4930666;29;20568;-70
2023/04/21 12:13:51;;;;;;;6.25;5.65;;;20.50;95.80;;;;;;4929908;29;20881;-69
2023/04/21 12:16:18;;;;;;;5.47;5.07;;;20.30;95.40;;;;;;4930317;29;20303;-69
2023/04/21 12:18:47;;;;;;;5.95;5.40;;;20.30;96.50;;;;;;4930503;29;20232;-69
2023/04/21 12:21:15;;;;;;;7.47;5.18;;;20.40;96.20;;;;;;4930631;29;20785;-69
2023/04/21 12:23:44;;;;;;;21.98;5.88;;;20.60;95.20;;;;;;4930110;29;20735;-69
2023/04/21 12:26:11;;;;;;;6.20;4.70;;;20.80;96.10;;;;;;4930043;29;20208;-70
2023/04/21 12:28:39;;;;;;;6.07;4.90;;;20.90;94.60;;;;;;4930517;29;20339;-70
2023/04/21 12:31:06;;;;;;;7.30;5.30;;;20.90;94.50;;;;;;4930844;29;20294;-69
2023/04/21 12:33:33;;;;;;;5.57;4.85;;;21.00;94.30;;;;;;4931034;29;20614;-69
2023/04/21 12:36:00;;;;;;;7.93;5.22;;;21.10;94.90;;;;;;4930356;29;20268;-70
2023/04/21 12:38:26;;;;;;;5.93;5.32;;;21.20;95.20;;;;;;4930665;29;20750;-70
2023/04/21 12:40:55;;;;;;;5.70;5.22;;;21.20;95.20;;;;;;4930807;29;20429;-70
2023/04/21 12:43:22;;;;;;;5.70;5.28;;;21.10;95.00;;;;;;4930747;29;20327;-69
2023/04/21 12:45:51;;;;;;;5.95;5.40;;;20.90;94.30;;;;;;4930198;29;20251;-69
2023/04/21 12:48:18;;;;;;;9.98;5.32;;;20.90;94.90;;;;;;4930675;29;20715;-69